sensor_id;sensor_type;location;lat;lon;timestamp;temperature;humidity
69189;DHT22;56302;52.322;5.926;2022-09-23T00:00:42;7.40;82.20
69189;DHT22;56302;52.322;5.926;2022-09-23T00:03:08;7.40;82.20
69189;DHT22;56302;52.322;5.926;2022-09-23T00:05:34;7.40;82.40
69189;DHT22;56302;52.322;5.926;2022-09-23T00:08:00;7.40;82.70
69189;DHT22;56302;52.322;5.926;2022-09-23T00:10:28;7.40;81.90
69189;DHT22;56302;52.322;5.926;2022-09-23T00:12:56;7.30;83.60
69189;DHT22;56302;52.322;5.926;2022-09-23T00:15:22;7.10;83.20
69189;DHT22;56302;52.322;5.926;2022-09-23T00:17:49;7.20;82.10
69189;DHT22;56302;52.322;5.926;2022-09-23T00:20:15;7.20;81.80
69189;DHT22;56302;52.322;5.926;2022-09-23T00:22:41;7.30;82.90
69189;DHT22;56302;52.322;5.926;2022-09-23T00:25:08;7.20;82.50
69189;DHT22;56302;52.322;5.926;2022-09-23T00:27:35;7.20;82.40
69189;DHT22;56302;52.322;5.926;2022-09-23T00:30:02;7.10;82.20
69189;DHT22;56302;52.322;5.926;2022-09-23T00:32:28;7.20;81.50
69189;DHT22;56302;52.322;5.926;2022-09-23T00:34:53;7.20;82.80
69189;DHT22;56302;52.322;5.926;2022-09-23T00:37:19;7.20;82.50
69189;DHT22;56302;52.322;5.926;2022-09-23T00:39:45;7.10;82.40
69189;DHT22;56302;52.322;5.926;2022-09-23T00:42:14;7.10;83.20
69189;DHT22;56302;52.322;5.926;2022-09-23T00:44:53;7.00;84.30
69189;DHT22;56302;52.322;5.926;2022-09-23T00:47:38;7.00;83.00
69189;DHT22;56302;52.322;5.926;2022-09-23T00:50:12;7.00;82.50
69189;DHT22;56302;52.322;5.926;2022-09-23T00:52:39;7.10;82.30
69189;DHT22;56302;52.322;5.926;2022-09-23T00:55:10;7.00;83.10
69189;DHT22;56302;52.322;5.926;2022-09-23T00:57:37;6.90;84.60
69189;DHT22;56302;52.322;5.926;2022-09-23T01:00:06;6.70;86.10
69189;DHT22;56302;52.322;5.926;2022-09-23T01:02:33;6.70;86.60
69189;DHT22;56302;52.322;5.926;2022-09-23T01:05:00;6.70;86.00
69189;DHT22;56302;52.322;5.926;2022-09-23T01:07:27;6.80;85.30
69189;DHT22;56302;52.322;5.926;2022-09-23T01:09:54;6.80;84.20
69189;DHT22;56302;52.322;5.926;2022-09-23T01:34:48;6.70;83.70
69189;DHT22;56302;52.322;5.926;2022-09-23T01:37:37;6.70;83.40
69189;DHT22;56302;52.322;5.926;2022-09-23T01:42:50;6.60;85.60
69189;DHT22;56302;52.322;5.926;2022-09-23T01:45:32;6.50;84.50
69189;DHT22;56302;52.322;5.926;2022-09-23T01:48:18;6.60;84.90
69189;DHT22;56302;52.322;5.926;2022-09-23T01:50:51;6.60;84.40
69189;DHT22;56302;52.322;5.926;2022-09-23T01:53:38;6.60;84.10
69189;DHT22;56302;52.322;5.926;2022-09-23T01:56:37;6.50;84.30
69189;DHT22;56302;52.322;5.926;2022-09-23T02:01:39;6.50;83.80
69189;DHT22;56302;52.322;5.926;2022-09-23T02:04:09;6.50;83.70
69189;DHT22;56302;52.322;5.926;2022-09-23T02:06:48;6.50;84.00
69189;DHT22;56302;52.322;5.926;2022-09-23T02:09:21;6.50;84.10
69189;DHT22;56302;52.322;5.926;2022-09-23T02:11:51;6.40;83.90
69189;DHT22;56302;52.322;5.926;2022-09-23T02:14:23;6.40;83.70
69189;DHT22;56302;52.322;5.926;2022-09-23T02:16:50;6.30;84.30
69189;DHT22;56302;52.322;5.926;2022-09-23T02:21:54;6.30;83.70
69189;DHT22;56302;52.322;5.926;2022-09-23T02:24:27;6.30;84.00
69189;DHT22;56302;52.322;5.926;2022-09-23T02:35:11;6.30;84.10
69189;DHT22;56302;52.322;5.926;2022-09-23T02:45:32;6.20;84.60
69189;DHT22;56302;52.322;5.926;2022-09-23T02:48:06;6.20;84.90
69189;DHT22;56302;52.322;5.926;2022-09-23T02:50:33;6.20;84.90
69189;DHT22;56302;52.322;5.926;2022-09-23T02:52:59;6.10;85.30
69189;DHT22;56302;52.322;5.926;2022-09-23T02:55:28;6.00;86.50
69189;DHT22;56302;52.322;5.926;2022-09-23T02:57:59;6.00;86.30
69189;DHT22;56302;52.322;5.926;2022-09-23T03:00:32;6.00;86.30
69189;DHT22;56302;52.322;5.926;2022-09-23T03:05:40;5.90;86.90
69189;DHT22;56302;52.322;5.926;2022-09-23T03:08:31;5.90;86.80
69189;DHT22;56302;52.322;5.926;2022-09-23T03:11:07;5.90;86.10
69189;DHT22;56302;52.322;5.926;2022-09-23T03:21:25;6.00;85.60
69189;DHT22;56302;52.322;5.926;2022-09-23T03:23:55;5.80;86.80
69189;DHT22;56302;52.322;5.926;2022-09-23T03:26:27;5.70;87.10
69189;DHT22;56302;52.322;5.926;2022-09-23T03:28:55;5.80;86.60
69189;DHT22;56302;52.322;5.926;2022-09-23T03:31:21;5.80;86.80
69189;DHT22;56302;52.322;5.926;2022-09-23T03:33:52;5.70;86.50
69189;DHT22;56302;52.322;5.926;2022-09-23T03:36:26;5.80;86.40
69189;DHT22;56302;52.322;5.926;2022-09-23T03:39:16;5.60;87.20
69189;DHT22;56302;52.322;5.926;2022-09-23T03:41:47;5.60;87.60
69189;DHT22;56302;52.322;5.926;2022-09-23T03:44:15;5.60;87.60
69189;DHT22;56302;52.322;5.926;2022-09-23T03:46:41;5.60;87.10
69189;DHT22;56302;52.322;5.926;2022-09-23T03:49:17;5.70;87.10
69189;DHT22;56302;52.322;5.926;2022-09-23T03:51:44;5.70;86.40
69189;DHT22;56302;52.322;5.926;2022-09-23T03:54:09;5.70;86.30
69189;DHT22;56302;52.322;5.926;2022-09-23T03:56:35;5.70;86.30
69189;DHT22;56302;52.322;5.926;2022-09-23T03:59:01;5.70;86.20
69189;DHT22;56302;52.322;5.926;2022-09-23T04:01:27;5.70;86.00
69189;DHT22;56302;52.322;5.926;2022-09-23T04:03:53;5.70;85.90
69189;DHT22;56302;52.322;5.926;2022-09-23T04:06:19;5.70;85.90
69189;DHT22;56302;52.322;5.926;2022-09-23T04:08:45;5.60;87.00
69189;DHT22;56302;52.322;5.926;2022-09-23T04:11:11;5.50;88.00
69189;DHT22;56302;52.322;5.926;2022-09-23T04:13:36;5.50;87.80
69189;DHT22;56302;52.322;5.926;2022-09-23T04:16:02;5.50;87.20
69189;DHT22;56302;52.322;5.926;2022-09-23T04:18:27;5.50;87.60
69189;DHT22;56302;52.322;5.926;2022-09-23T04:20:59;5.50;87.80
69189;DHT22;56302;52.322;5.926;2022-09-23T04:23:26;5.50;88.10
69189;DHT22;56302;52.322;5.926;2022-09-23T04:25:51;5.40;88.90
69189;DHT22;56302;52.322;5.926;2022-09-23T04:28:18;5.40;89.50
69189;DHT22;56302;52.322;5.926;2022-09-23T04:30:44;5.40;89.50
69189;DHT22;56302;52.322;5.926;2022-09-23T04:33:11;5.50;89.00
69189;DHT22;56302;52.322;5.926;2022-09-23T04:35:38;5.50;89.10
69189;DHT22;56302;52.322;5.926;2022-09-23T04:38:04;5.50;88.80
69189;DHT22;56302;52.322;5.926;2022-09-23T04:40:31;5.50;88.70
69189;DHT22;56302;52.322;5.926;2022-09-23T04:42:56;5.50;89.40
69189;DHT22;56302;52.322;5.926;2022-09-23T04:45:22;5.50;88.90
69189;DHT22;56302;52.322;5.926;2022-09-23T04:47:47;5.50;88.80
69189;DHT22;56302;52.322;5.926;2022-09-23T04:50:13;5.60;88.60
69189;DHT22;56302;52.322;5.926;2022-09-23T04:52:39;5.60;88.90
69189;DHT22;56302;52.322;5.926;2022-09-23T04:55:05;5.50;89.60
69189;DHT22;56302;52.322;5.926;2022-09-23T04:57:30;5.40;89.50
69189;DHT22;56302;52.322;5.926;2022-09-23T04:59:56;5.50;89.10
69189;DHT22;56302;52.322;5.926;2022-09-23T05:02:22;5.40;89.30
69189;DHT22;56302;52.322;5.926;2022-09-23T05:04:48;5.50;89.10
69189;DHT22;56302;52.322;5.926;2022-09-23T05:07:15;5.50;88.40
69189;DHT22;56302;52.322;5.926;2022-09-23T05:09:41;5.50;88.10
69189;DHT22;56302;52.322;5.926;2022-09-23T05:12:07;5.50;87.70
69189;DHT22;56302;52.322;5.926;2022-09-23T05:14:32;5.50;87.80
69189;DHT22;56302;52.322;5.926;2022-09-23T05:16:58;5.40;88.40
69189;DHT22;56302;52.322;5.926;2022-09-23T05:19:23;5.50;88.30
69189;DHT22;56302;52.322;5.926;2022-09-23T05:21:49;5.50;88.30
69189;DHT22;56302;52.322;5.926;2022-09-23T05:24:14;5.50;88.10
69189;DHT22;56302;52.322;5.926;2022-09-23T05:26:41;5.50;88.70
69189;DHT22;56302;52.322;5.926;2022-09-23T05:29:06;5.50;88.90
69189;DHT22;56302;52.322;5.926;2022-09-23T05:31:33;5.50;89.50
69189;DHT22;56302;52.322;5.926;2022-09-23T05:34:03;5.50;90.30
69189;DHT22;56302;52.322;5.926;2022-09-23T05:36:31;5.50;90.70
69189;DHT22;56302;52.322;5.926;2022-09-23T05:38:57;5.50;90.80
69189;DHT22;56302;52.322;5.926;2022-09-23T05:41:24;5.60;90.50
69189;DHT22;56302;52.322;5.926;2022-09-23T05:43:51;5.60;90.20
69189;DHT22;56302;52.322;5.926;2022-09-23T05:46:19;5.70;90.60
69189;DHT22;56302;52.322;5.926;2022-09-23T05:48:45;5.70;91.40
69189;DHT22;56302;52.322;5.926;2022-09-23T05:51:17;5.80;91.10
69189;DHT22;56302;52.322;5.926;2022-09-23T05:53:43;5.80;90.60
69189;DHT22;56302;52.322;5.926;2022-09-23T05:56:16;5.90;90.20
69189;DHT22;56302;52.322;5.926;2022-09-23T05:58:43;5.90;90.80
69189;DHT22;56302;52.322;5.926;2022-09-23T06:01:14;5.80;91.80
69189;DHT22;56302;52.322;5.926;2022-09-23T06:03:45;5.90;92.10
69189;DHT22;56302;52.322;5.926;2022-09-23T06:06:12;5.90;92.10
69189;DHT22;56302;52.322;5.926;2022-09-23T06:08:43;5.90;92.00
69189;DHT22;56302;52.322;5.926;2022-09-23T06:11:08;6.00;92.10
69189;DHT22;56302;52.322;5.926;2022-09-23T06:13:35;6.00;92.20
69189;DHT22;56302;52.322;5.926;2022-09-23T06:16:05;6.10;92.10
69189;DHT22;56302;52.322;5.926;2022-09-23T06:18:32;6.10;92.50
69189;DHT22;56302;52.322;5.926;2022-09-23T06:21:01;6.20;92.00
69189;DHT22;56302;52.322;5.926;2022-09-23T06:23:27;6.30;92.40
69189;DHT22;56302;52.322;5.926;2022-09-23T06:25:53;6.30;92.40
69189;DHT22;56302;52.322;5.926;2022-09-23T06:28:18;6.30;93.00
69189;DHT22;56302;52.322;5.926;2022-09-23T06:30:44;6.30;93.00
69189;DHT22;56302;52.322;5.926;2022-09-23T06:33:10;6.40;92.50
69189;DHT22;56302;52.322;5.926;2022-09-23T06:35:35;6.50;92.50
69189;DHT22;56302;52.322;5.926;2022-09-23T06:38:04;6.60;92.30
69189;DHT22;56302;52.322;5.926;2022-09-23T06:40:30;6.60;92.30
69189;DHT22;56302;52.322;5.926;2022-09-23T06:42:57;6.70;92.20
69189;DHT22;56302;52.322;5.926;2022-09-23T06:45:23;6.80;92.50
69189;DHT22;56302;52.322;5.926;2022-09-23T06:47:52;6.90;93.20
69189;DHT22;56302;52.322;5.926;2022-09-23T06:50:20;6.90;92.90
69189;DHT22;56302;52.322;5.926;2022-09-23T06:52:50;7.00;93.00
69189;DHT22;56302;52.322;5.926;2022-09-23T06:55:16;7.10;93.30
69189;DHT22;56302;52.322;5.926;2022-09-23T06:57:41;7.20;93.60
69189;DHT22;56302;52.322;5.926;2022-09-23T07:00:07;7.30;93.60
69189;DHT22;56302;52.322;5.926;2022-09-23T07:02:33;7.30;93.60
69189;DHT22;56302;52.322;5.926;2022-09-23T07:04:58;7.30;93.20
69189;DHT22;56302;52.322;5.926;2022-09-23T07:07:24;7.40;93.00
69189;DHT22;56302;52.322;5.926;2022-09-23T07:09:50;7.40;93.30
69189;DHT22;56302;52.322;5.926;2022-09-23T07:12:16;7.50;93.40
69189;DHT22;56302;52.322;5.926;2022-09-23T07:14:42;7.60;93.40
69189;DHT22;56302;52.322;5.926;2022-09-23T07:17:08;7.60;93.20
69189;DHT22;56302;52.322;5.926;2022-09-23T07:19:33;7.70;92.90
69189;DHT22;56302;52.322;5.926;2022-09-23T07:21:59;7.80;93.20
69189;DHT22;56302;52.322;5.926;2022-09-23T07:24:25;7.90;93.20
69189;DHT22;56302;52.322;5.926;2022-09-23T07:26:50;8.00;93.50
69189;DHT22;56302;52.322;5.926;2022-09-23T07:29:16;8.20;93.30
69189;DHT22;56302;52.322;5.926;2022-09-23T07:31:41;8.30;93.20
69189;DHT22;56302;52.322;5.926;2022-09-23T07:34:08;8.40;92.70
69189;DHT22;56302;52.322;5.926;2022-09-23T07:36:35;8.50;92.90
69189;DHT22;56302;52.322;5.926;2022-09-23T07:39:02;8.60;92.90
69189;DHT22;56302;52.322;5.926;2022-09-23T07:41:29;8.90;93.10
69189;DHT22;56302;52.322;5.926;2022-09-23T07:43:56;9.10;93.10
69189;DHT22;56302;52.322;5.926;2022-09-23T07:46:24;9.30;93.00
69189;DHT22;56302;52.322;5.926;2022-09-23T07:48:50;9.40;91.90
69189;DHT22;56302;52.322;5.926;2022-09-23T07:51:27;9.50;91.50
69189;DHT22;56302;52.322;5.926;2022-09-23T07:53:54;9.70;91.60
69189;DHT22;56302;52.322;5.926;2022-09-23T07:56:23;10.00;91.50
69189;DHT22;56302;52.322;5.926;2022-09-23T07:58:49;10.30;91.10
69189;DHT22;56302;52.322;5.926;2022-09-23T08:01:28;10.50;89.50
69189;DHT22;56302;52.322;5.926;2022-09-23T08:03:59;10.60;88.80
69189;DHT22;56302;52.322;5.926;2022-09-23T08:06:25;10.70;88.60
69189;DHT22;56302;52.322;5.926;2022-09-23T08:08:51;10.90;88.90
69189;DHT22;56302;52.322;5.926;2022-09-23T08:11:17;11.00;88.60
69189;DHT22;56302;52.322;5.926;2022-09-23T08:13:43;11.20;88.40
69189;DHT22;56302;52.322;5.926;2022-09-23T08:16:08;11.40;88.10
69189;DHT22;56302;52.322;5.926;2022-09-23T08:18:34;11.50;87.80
69189;DHT22;56302;52.322;5.926;2022-09-23T08:21:00;11.70;87.00
69189;DHT22;56302;52.322;5.926;2022-09-23T08:23:26;12.00;86.80
69189;DHT22;56302;52.322;5.926;2022-09-23T08:26:00;12.20;86.40
69189;DHT22;56302;52.322;5.926;2022-09-23T08:28:26;12.50;84.90
69189;DHT22;56302;52.322;5.926;2022-09-23T08:30:52;12.70;83.40
69189;DHT22;56302;52.322;5.926;2022-09-23T08:33:18;12.90;83.10
69189;DHT22;56302;52.322;5.926;2022-09-23T08:35:44;13.10;82.90
69189;DHT22;56302;52.322;5.926;2022-09-23T08:38:10;13.40;81.70
69189;DHT22;56302;52.322;5.926;2022-09-23T08:40:41;13.70;81.30
69189;DHT22;56302;52.322;5.926;2022-09-23T08:43:30;14.10;81.00
69189;DHT22;56302;52.322;5.926;2022-09-23T08:46:01;14.40;80.00
69189;DHT22;56302;52.322;5.926;2022-09-23T08:48:33;14.50;78.80
69189;DHT22;56302;52.322;5.926;2022-09-23T08:51:05;14.40;76.60
69189;DHT22;56302;52.322;5.926;2022-09-23T08:53:36;14.60;79.00
69189;DHT22;56302;52.322;5.926;2022-09-23T08:56:10;14.60;77.20
69189;DHT22;56302;52.322;5.926;2022-09-23T08:59:03;14.80;79.10
69189;DHT22;56302;52.322;5.926;2022-09-23T09:01:46;14.90;77.70
69189;DHT22;56302;52.322;5.926;2022-09-23T09:04:21;14.90;77.90
69189;DHT22;56302;52.322;5.926;2022-09-23T09:07:01;15.00;77.90
69189;DHT22;56302;52.322;5.926;2022-09-23T09:09:45;15.00;77.30
69189;DHT22;56302;52.322;5.926;2022-09-23T09:15:02;15.00;75.20
69189;DHT22;56302;52.322;5.926;2022-09-23T09:17:46;15.10;73.50
69189;DHT22;56302;52.322;5.926;2022-09-23T09:23:01;15.20;74.20
69189;DHT22;56302;52.322;5.926;2022-09-23T09:25:43;15.20;74.50
69189;DHT22;56302;52.322;5.926;2022-09-23T09:28:25;15.30;74.00
69189;DHT22;56302;52.322;5.926;2022-09-23T09:33:45;15.60;72.00
69189;DHT22;56302;52.322;5.926;2022-09-23T09:36:20;15.90;73.30
69189;DHT22;56302;52.322;5.926;2022-09-23T09:38:51;16.10;72.20
69189;DHT22;56302;52.322;5.926;2022-09-23T09:41:18;16.20;71.10
69189;DHT22;56302;52.322;5.926;2022-09-23T09:43:46;16.30;73.30
69189;DHT22;56302;52.322;5.926;2022-09-23T09:46:45;16.40;72.20
69189;DHT22;56302;52.322;5.926;2022-09-23T09:49:35;16.40;72.20
69189;DHT22;56302;52.322;5.926;2022-09-23T09:52:18;16.50;72.00
69189;DHT22;56302;52.322;5.926;2022-09-23T09:54:45;16.40;71.40
69189;DHT22;56302;52.322;5.926;2022-09-23T09:57:25;16.30;72.10
69189;DHT22;56302;52.322;5.926;2022-09-23T09:59:52;16.40;72.50
69189;DHT22;56302;52.322;5.926;2022-09-23T10:02:28;16.60;70.80
69189;DHT22;56302;52.322;5.926;2022-09-23T10:05:06;16.80;68.10
69189;DHT22;56302;52.322;5.926;2022-09-23T10:07:34;17.00;69.70
69189;DHT22;56302;52.322;5.926;2022-09-23T10:10:20;17.10;67.30
69189;DHT22;56302;52.322;5.926;2022-09-23T10:12:48;17.00;62.80
69189;DHT22;56302;52.322;5.926;2022-09-23T10:15:41;17.00;62.10
69189;DHT22;56302;52.322;5.926;2022-09-23T10:18:29;16.90;63.80
69189;DHT22;56302;52.322;5.926;2022-09-23T10:21:06;17.00;63.90
69189;DHT22;56302;52.322;5.926;2022-09-23T10:23:32;17.10;62.70
69189;DHT22;56302;52.322;5.926;2022-09-23T10:26:05;17.10;63.10
69189;DHT22;56302;52.322;5.926;2022-09-23T10:28:48;17.20;63.40
69189;DHT22;56302;52.322;5.926;2022-09-23T10:33:51;17.40;64.60
69189;DHT22;56302;52.322;5.926;2022-09-23T10:36:19;17.40;63.70
69189;DHT22;56302;52.322;5.926;2022-09-23T10:38:47;17.30;59.60
69189;DHT22;56302;52.322;5.926;2022-09-23T10:41:33;17.30;62.20
69189;DHT22;56302;52.322;5.926;2022-09-23T10:44:38;17.20;62.00
69189;DHT22;56302;52.322;5.926;2022-09-23T10:50:02;17.20;60.90
69189;DHT22;56302;52.322;5.926;2022-09-23T10:55:42;17.10;62.00
69189;DHT22;56302;52.322;5.926;2022-09-23T10:58:39;17.10;60.10
69189;DHT22;56302;52.322;5.926;2022-09-23T11:06:58;17.00;62.80
69189;DHT22;56302;52.322;5.926;2022-09-23T11:12:34;17.00;66.40
69189;DHT22;56302;52.322;5.926;2022-09-23T11:15:29;16.90;64.70
69189;DHT22;56302;52.322;5.926;2022-09-23T11:21:40;16.90;62.90
69189;DHT22;56302;52.322;5.926;2022-09-23T11:27:06;17.00;63.70
69189;DHT22;56302;52.322;5.926;2022-09-23T11:30:15;16.80;63.80
69189;DHT22;56302;52.322;5.926;2022-09-23T11:35:51;16.80;64.80
69189;DHT22;56302;52.322;5.926;2022-09-23T11:38:30;16.80;65.60
69189;DHT22;56302;52.322;5.926;2022-09-23T11:43:42;16.90;66.40
69189;DHT22;56302;52.322;5.926;2022-09-23T11:46:25;17.00;65.60
69189;DHT22;56302;52.322;5.926;2022-09-23T11:49:04;17.00;63.00
69189;DHT22;56302;52.322;5.926;2022-09-23T11:52:03;16.90;62.20
69189;DHT22;56302;52.322;5.926;2022-09-23T11:54:39;16.90;64.10
69189;DHT22;56302;52.322;5.926;2022-09-23T11:57:21;17.00;65.90
69189;DHT22;56302;52.322;5.926;2022-09-23T11:59:54;17.10;63.80
69189;DHT22;56302;52.322;5.926;2022-09-23T12:02:29;17.10;64.00
69189;DHT22;56302;52.322;5.926;2022-09-23T12:05:15;17.10;64.30
69189;DHT22;56302;52.322;5.926;2022-09-23T12:10:54;17.10;65.80
69189;DHT22;56302;52.322;5.926;2022-09-23T12:19:17;17.30;61.80
69189;DHT22;56302;52.322;5.926;2022-09-23T12:24:45;17.40;64.20
69189;DHT22;56302;52.322;5.926;2022-09-23T12:29:58;17.50;62.80
69189;DHT22;56302;52.322;5.926;2022-09-23T12:32:26;17.60;62.00
69189;DHT22;56302;52.322;5.926;2022-09-23T12:34:52;17.80;62.80
69189;DHT22;56302;52.322;5.926;2022-09-23T12:37:33;17.80;61.10
69189;DHT22;56302;52.322;5.926;2022-09-23T12:40:53;17.70;60.30
69189;DHT22;56302;52.322;5.926;2022-09-23T12:42:56;17.80;62.60
69189;DHT22;56302;52.322;5.926;2022-09-23T12:47:57;18.20;61.50
69189;DHT22;56302;52.322;5.926;2022-09-23T12:55:58;18.40;59.70
69189;DHT22;56302;52.322;5.926;2022-09-23T13:03:56;18.40;58.70
69189;DHT22;56302;52.322;5.926;2022-09-23T13:09:21;18.50;60.00
69189;DHT22;56302;52.322;5.926;2022-09-23T13:11:50;18.40;60.10
69189;DHT22;56302;52.322;5.926;2022-09-23T13:14:20;18.50;59.90
69189;DHT22;56302;52.322;5.926;2022-09-23T13:16:47;18.40;58.70
69189;DHT22;56302;52.322;5.926;2022-09-23T13:22:05;18.40;60.70
69189;DHT22;56302;52.322;5.926;2022-09-23T13:24:41;18.40;61.30
69189;DHT22;56302;52.322;5.926;2022-09-23T13:27:31;18.30;59.90
69189;DHT22;56302;52.322;5.926;2022-09-23T13:30:15;18.20;60.40
69189;DHT22;56302;52.322;5.926;2022-09-23T13:35:39;18.10;61.30
69189;DHT22;56302;52.322;5.926;2022-09-23T13:38:20;18.10;60.80
69189;DHT22;56302;52.322;5.926;2022-09-23T13:43:44;18.20;60.10
69189;DHT22;56302;52.322;5.926;2022-09-23T13:46:15;18.20;58.50
69189;DHT22;56302;52.322;5.926;2022-09-23T13:48:42;18.10;58.20
69189;DHT22;56302;52.322;5.926;2022-09-23T13:51:10;18.10;58.70
69189;DHT22;56302;52.322;5.926;2022-09-23T13:53:39;18.20;60.80
69189;DHT22;56302;52.322;5.926;2022-09-23T13:58:33;18.10;61.30
69189;DHT22;56302;52.322;5.926;2022-09-23T14:00:59;18.10;61.50
69189;DHT22;56302;52.322;5.926;2022-09-23T14:03:33;18.10;61.70
69189;DHT22;56302;52.322;5.926;2022-09-23T14:06:02;18.00;61.80
69189;DHT22;56302;52.322;5.926;2022-09-23T14:08:29;18.00;59.60
69189;DHT22;56302;52.322;5.926;2022-09-23T14:10:57;17.90;60.70
69189;DHT22;56302;52.322;5.926;2022-09-23T14:13:31;17.90;60.10
69189;DHT22;56302;52.322;5.926;2022-09-23T14:16:01;17.80;62.60
69189;DHT22;56302;52.322;5.926;2022-09-23T14:18:35;17.90;61.80
69189;DHT22;56302;52.322;5.926;2022-09-23T14:21:02;17.80;61.60
69189;DHT22;56302;52.322;5.926;2022-09-23T14:23:28;17.80;63.70
69189;DHT22;56302;52.322;5.926;2022-09-23T14:25:55;17.80;62.70
69189;DHT22;56302;52.322;5.926;2022-09-23T14:28:24;17.80;63.00
69189;DHT22;56302;52.322;5.926;2022-09-23T14:30:52;17.70;60.70
69189;DHT22;56302;52.322;5.926;2022-09-23T14:33:29;17.70;61.70
69189;DHT22;56302;52.322;5.926;2022-09-23T14:36:01;17.60;63.40
69189;DHT22;56302;52.322;5.926;2022-09-23T14:38:28;17.60;64.10
69189;DHT22;56302;52.322;5.926;2022-09-23T14:41:17;17.50;62.60
69189;DHT22;56302;52.322;5.926;2022-09-23T14:43:51;17.40;64.80
69189;DHT22;56302;52.322;5.926;2022-09-23T14:46:20;17.30;64.30
69189;DHT22;56302;52.322;5.926;2022-09-23T14:48:57;17.30;64.30
69189;DHT22;56302;52.322;5.926;2022-09-23T14:51:53;17.20;61.40
69189;DHT22;56302;52.322;5.926;2022-09-23T14:56:58;17.20;62.20
69189;DHT22;56302;52.322;5.926;2022-09-23T14:59:27;17.20;65.80
69189;DHT22;56302;52.322;5.926;2022-09-23T15:01:55;17.10;66.30
69189;DHT22;56302;52.322;5.926;2022-09-23T15:07:00;17.10;67.00
69189;DHT22;56302;52.322;5.926;2022-09-23T15:09:31;17.10;66.40
69189;DHT22;56302;52.322;5.926;2022-09-23T15:12:17;17.10;67.50
69189;DHT22;56302;52.322;5.926;2022-09-23T15:14:50;17.00;67.10
69189;DHT22;56302;52.322;5.926;2022-09-23T15:19:56;17.00;68.40
69189;DHT22;56302;52.322;5.926;2022-09-23T15:22:25;17.00;67.20
69189;DHT22;56302;52.322;5.926;2022-09-23T15:24:52;17.00;68.70
69189;DHT22;56302;52.322;5.926;2022-09-23T15:27:28;17.00;68.80
69189;DHT22;56302;52.322;5.926;2022-09-23T15:30:16;16.90;69.10
69189;DHT22;56302;52.322;5.926;2022-09-23T15:32:43;16.90;68.60
69189;DHT22;56302;52.322;5.926;2022-09-23T15:35:17;16.90;68.60
69189;DHT22;56302;52.322;5.926;2022-09-23T15:37:45;16.90;69.50
69189;DHT22;56302;52.322;5.926;2022-09-23T15:40:21;16.90;69.70
69189;DHT22;56302;52.322;5.926;2022-09-23T15:42:47;16.90;69.50
69189;DHT22;56302;52.322;5.926;2022-09-23T15:45:17;16.90;70.10
69189;DHT22;56302;52.322;5.926;2022-09-23T15:47:45;16.80;70.20
69189;DHT22;56302;52.322;5.926;2022-09-23T15:50:11;16.80;70.40
69189;DHT22;56302;52.322;5.926;2022-09-23T15:52:37;16.80;70.60
69189;DHT22;56302;52.322;5.926;2022-09-23T15:55:14;16.70;70.60
69189;DHT22;56302;52.322;5.926;2022-09-23T15:57:40;16.70;71.10
69189;DHT22;56302;52.322;5.926;2022-09-23T16:00:06;16.60;71.40
69189;DHT22;56302;52.322;5.926;2022-09-23T16:02:32;16.60;71.20
69189;DHT22;56302;52.322;5.926;2022-09-23T16:04:58;16.60;71.50
69189;DHT22;56302;52.322;5.926;2022-09-23T16:07:27;16.50;71.60
69189;DHT22;56302;52.322;5.926;2022-09-23T16:09:52;16.50;71.70
69189;DHT22;56302;52.322;5.926;2022-09-23T16:12:19;16.40;72.20
69189;DHT22;56302;52.322;5.926;2022-09-23T16:14:44;16.30;71.40
69189;DHT22;56302;52.322;5.926;2022-09-23T16:17:11;16.30;72.00
69189;DHT22;56302;52.322;5.926;2022-09-23T16:19:38;16.30;72.10
69189;DHT22;56302;52.322;5.926;2022-09-23T16:22:03;16.30;72.00
69189;DHT22;56302;52.322;5.926;2022-09-23T16:24:29;16.30;72.30
69189;DHT22;56302;52.322;5.926;2022-09-23T16:26:56;16.20;72.50
69189;DHT22;56302;52.322;5.926;2022-09-23T16:29:24;16.20;73.20
69189;DHT22;56302;52.322;5.926;2022-09-23T16:31:51;16.20;73.00
69189;DHT22;56302;52.322;5.926;2022-09-23T16:34:16;16.10;73.10
69189;DHT22;56302;52.322;5.926;2022-09-23T16:36:44;16.10;73.20
69189;DHT22;56302;52.322;5.926;2022-09-23T16:39:12;16.00;73.50
69189;DHT22;56302;52.322;5.926;2022-09-23T16:41:38;16.00;73.50
69189;DHT22;56302;52.322;5.926;2022-09-23T16:44:05;16.00;73.70
69189;DHT22;56302;52.322;5.926;2022-09-23T16:46:33;15.90;73.90
69189;DHT22;56302;52.322;5.926;2022-09-23T16:48:59;15.90;73.80
69189;DHT22;56302;52.322;5.926;2022-09-23T16:51:27;15.90;73.70
69189;DHT22;56302;52.322;5.926;2022-09-23T16:53:54;15.80;73.80
69189;DHT22;56302;52.322;5.926;2022-09-23T16:56:22;15.80;73.80
69189;DHT22;56302;52.322;5.926;2022-09-23T16:58:49;15.80;73.80
69189;DHT22;56302;52.322;5.926;2022-09-23T17:01:19;15.70;74.40
69189;DHT22;56302;52.322;5.926;2022-09-23T17:04:04;15.70;74.40
69189;DHT22;56302;52.322;5.926;2022-09-23T17:06:30;15.70;74.70
69189;DHT22;56302;52.322;5.926;2022-09-23T17:08:55;15.70;74.60
69189;DHT22;56302;52.322;5.926;2022-09-23T17:11:21;15.60;74.80
69189;DHT22;56302;52.322;5.926;2022-09-23T17:13:47;15.60;75.30
69189;DHT22;56302;52.322;5.926;2022-09-23T17:16:27;15.60;75.30
69189;DHT22;56302;52.322;5.926;2022-09-23T17:18:53;15.50;75.90
69189;DHT22;56302;52.322;5.926;2022-09-23T17:21:20;15.40;75.50
69189;DHT22;56302;52.322;5.926;2022-09-23T17:23:46;15.40;75.80
69189;DHT22;56302;52.322;5.926;2022-09-23T17:26:11;15.40;75.70
69189;DHT22;56302;52.322;5.926;2022-09-23T17:28:38;15.40;75.80
69189;DHT22;56302;52.322;5.926;2022-09-23T17:31:05;15.40;75.80
69189;DHT22;56302;52.322;5.926;2022-09-23T17:33:32;15.30;75.80
69189;DHT22;56302;52.322;5.926;2022-09-23T17:36:05;15.30;75.90
69189;DHT22;56302;52.322;5.926;2022-09-23T17:38:32;15.20;76.20
69189;DHT22;56302;52.322;5.926;2022-09-23T17:40:57;15.10;76.10
69189;DHT22;56302;52.322;5.926;2022-09-23T17:43:25;15.00;76.00
69189;DHT22;56302;52.322;5.926;2022-09-23T17:45:52;15.00;76.30
69189;DHT22;56302;52.322;5.926;2022-09-23T17:48:19;14.90;76.70
69189;DHT22;56302;52.322;5.926;2022-09-23T17:50:55;14.90;77.10
69189;DHT22;56302;52.322;5.926;2022-09-23T17:53:21;14.80;77.20
69189;DHT22;56302;52.322;5.926;2022-09-23T17:56:01;14.80;77.60
69189;DHT22;56302;52.322;5.926;2022-09-23T17:58:32;14.70;77.70
69189;DHT22;56302;52.322;5.926;2022-09-23T18:00:59;14.70;77.50
69189;DHT22;56302;52.322;5.926;2022-09-23T18:03:26;14.70;77.80
69189;DHT22;56302;52.322;5.926;2022-09-23T18:05:52;14.70;77.80
69189;DHT22;56302;52.322;5.926;2022-09-23T18:08:18;14.60;77.90
69189;DHT22;56302;52.322;5.926;2022-09-23T18:10:44;14.60;78.40
69189;DHT22;56302;52.322;5.926;2022-09-23T18:13:10;14.50;78.50
69189;DHT22;56302;52.322;5.926;2022-09-23T18:15:37;14.60;78.40
69189;DHT22;56302;52.322;5.926;2022-09-23T18:18:03;14.50;79.50
69189;DHT22;56302;52.322;5.926;2022-09-23T18:20:28;14.50;78.70
69189;DHT22;56302;52.322;5.926;2022-09-23T18:22:54;14.50;79.00